Botkins, Ohio
Current Conditions -  °F | °C
As of 1:53 PM on Friday 31 Oct 2014 (Local Time) from KAXV Reporting Station
Drizzle Drizzle  
Wind Chill: 33°   Ceiling: 900
Heat Index: 41°   Visibility: 10mi
Dew Point: 39°   Wind: 15mph
Humidity: 93%   Direction: 320°NW
Pressure: 29.9"   Gusts: 22mph
Location:  40.47°N, 84.18°W
Report Text: KAXV 311753Z AUTO 32013G19KT 10SM DZ BKN009 BKN013 OVC026 05/04 A2990 RMK AO2
Loading
Personal Weather Stations






























Interactive Weather Map
Tropical Storm Tracking
New forecast layout! Learn more

10-Day Weather Forecast

Advertisements
Track Severe Weather on mobile